Time;durP1;ratioP1;P1;durP2;ratioP2;P2;SDS_P1;SDS_P2;PMS_P1;PMS_P2;Temp;Humidity;BMP_temperature;BMP_pressure;BME280_temperature;BME280_humidity;BME280_pressure;Samples;Min_cycle;Max_cycle;Signal;HPM_P1;HPM_P2
2022/11/23 00:00:58;;;;;;;18.40;12.00;;;;;;;;;;5075253;28;20052;-78
2022/11/23 00:03:24;;;;;;;19.45;12.57;;;;;;;;;;5076177;28;20043;-77
2022/11/23 00:05:50;;;;;;;15.80;11.88;;;;;;;;;;5075364;28;20037;-77
2022/11/23 00:08:16;;;;;;;17.83;11.75;;;;;;;;;;5075547;28;20076;-78
2022/11/23 00:10:42;;;;;;;19.48;12.80;;;;;;;;;;5074043;28;20040;-78
2022/11/23 00:13:08;;;;;;;18.40;11.90;;;;;;;;;;5063979;28;20132;-78
2022/11/23 00:15:34;;;;;;;19.23;12.43;;;;;;;;;;5072927;28;20138;-78
2022/11/23 00:18:01;;;;;;;19.10;12.45;;;;;;;;;;5074977;28;20064;-78
2022/11/23 00:20:27;;;;;;;17.98;12.18;;;;;;;;;;5074455;28;20376;-77
2022/11/23 00:22:53;;;;;;;18.92;11.07;;;;;;;;;;5072601;28;20040;-78
2022/11/23 00:25:19;;;;;;;17.50;11.88;;;;;;;;;;5074333;28;20044;-78
2022/11/23 00:27:45;;;;;;;19.77;12.50;;;;;;;;;;5072828;28;20036;-78
2022/11/23 00:30:11;;;;;;;19.15;12.75;;;;;;;;;;5063242;28;20037;-77
2022/11/23 00:32:37;;;;;;;20.17;12.20;;;;;;;;;;5074974;28;20505;-77
2022/11/23 00:35:04;;;;;;;19.67;12.05;;;;;;;;;;5060895;28;20116;-78
2022/11/23 00:37:30;;;;;;;19.60;13.23;;;;;;;;;;5062659;28;20079;-78
2022/11/23 00:39:56;;;;;;;19.80;12.02;;;;;;;;;;5064319;28;20041;-78
2022/11/23 00:42:22;;;;;;;19.52;11.70;;;;;;;;;;5067625;28;20037;-77
2022/11/23 00:44:48;;;;;;;20.00;12.57;;;;;;;;;;5074260;28;20048;-77
2022/11/23 00:47:14;;;;;;;20.55;13.15;;;;;;;;;;5072796;28;20052;-77
2022/11/23 00:49:40;;;;;;;19.00;12.27;;;;;;;;;;5074610;28;20032;-77
2022/11/23 00:52:06;;;;;;;18.58;12.38;;;;;;;;;;5068294;28;20037;-78
2022/11/23 00:54:32;;;;;;;19.65;12.18;;;;;;;;;;5072501;28;20050;-78
2022/11/23 00:56:58;;;;;;;18.58;11.63;;;;;;;;;;5067488;28;20040;-78
2022/11/23 00:59:24;;;;;;;17.85;12.10;;;;;;;;;;5067536;28;20067;-78
2022/11/23 01:01:50;;;;;;;18.30;12.48;;;;;;;;;;5074415;28;20468;-77
2022/11/23 01:04:16;;;;;;;19.52;12.95;;;;;;;;;;5074180;28;20048;-77
2022/11/23 01:06:42;;;;;;;23.00;13.07;;;;;;;;;;5074450;28;20040;-77
2022/11/23 01:09:13;;;;;;;21.25;13.07;;;;;;;;;;5068942;28;20048;-77
2022/11/23 01:11:39;;;;;;;21.98;12.70;;;;;;;;;;5074212;28;20047;-78
2022/11/23 01:14:05;;;;;;;20.50;12.52;;;;;;;;;;5073484;28;20036;-78
2022/11/23 01:16:32;;;;;;;25.88;13.43;;;;;;;;;;5074229;28;20399;-77
2022/11/23 01:18:59;;;;;;;24.67;12.43;;;;;;;;;;5070817;28;20041;-77
2022/11/23 01:21:26;;;;;;;21.20;13.30;;;;;;;;;;5053291;28;20133;-77
2022/11/23 01:23:52;;;;;;;17.92;11.88;;;;;;;;;;5073497;28;20052;-77
2022/11/23 01:26:18;;;;;;;17.75;12.30;;;;;;;;;;5074165;28;20048;-77
2022/11/23 01:28:45;;;;;;;20.23;12.13;;;;;;;;;;5073842;28;20131;-77
2022/11/23 01:31:14;;;;;;;19.60;12.95;;;;;;;;;;5073954;28;20083;-78
2022/11/23 01:33:41;;;;;;;18.02;11.75;;;;;;;;;;5073770;28;20113;-77
2022/11/23 01:36:11;;;;;;;19.85;13.52;;;;;;;;;;5073744;28;20444;-78
2022/11/23 01:38:37;;;;;;;23.67;14.20;;;;;;;;;;5072926;28;20447;-77
2022/11/23 01:41:07;;;;;;;20.13;13.13;;;;;;;;;;5073605;28;20395;-77
2022/11/23 01:43:33;;;;;;;20.98;12.93;;;;;;;;;;5073848;28;20055;-77
2022/11/23 01:46:00;;;;;;;21.40;12.50;;;;;;;;;;5072739;28;20078;-77
2022/11/23 01:48:46;;;;;;;22.13;13.55;;;;;;;;;;5073371;28;20449;-78
2022/11/23 01:51:14;;;;;;;25.42;14.55;;;;;;;;;;5051078;28;20044;-78
2022/11/23 01:53:40;;;;;;;17.88;12.48;;;;;;;;;;5073551;28;20166;-77
2022/11/23 01:56:07;;;;;;;19.83;13.25;;;;;;;;;;5073562;28;20367;-77
2022/11/23 01:58:36;;;;;;;21.75;13.02;;;;;;;;;;5072213;28;20430;-77
2022/11/23 02:01:02;;;;;;;22.23;13.45;;;;;;;;;;5073757;28;20114;-77
2022/11/23 02:03:30;;;;;;;20.90;13.27;;;;;;;;;;5073432;28;20132;-77
2022/11/23 02:06:00;;;;;;;22.80;13.25;;;;;;;;;;5073306;28;20045;-77
2022/11/23 02:08:27;;;;;;;19.95;12.70;;;;;;;;;;5072746;28;20051;-77
2022/11/23 02:10:55;;;;;;;21.38;12.90;;;;;;;;;;5073663;28;20467;-77
2022/11/23 02:13:21;;;;;;;25.20;13.45;;;;;;;;;;5077724;28;20068;-77
2022/11/23 02:15:47;;;;;;;22.08;13.95;;;;;;;;;;5078308;28;20060;-77
2022/11/23 02:18:16;;;;;;;27.13;15.32;;;;;;;;;;5073182;28;20048;-78
2022/11/23 02:20:43;;;;;;;23.88;13.38;;;;;;;;;;5043897;28;20468;-78
2022/11/23 02:23:12;;;;;;;21.60;14.23;;;;;;;;;;5055751;28;20124;-77
2022/11/23 02:25:44;;;;;;;21.60;13.02;;;;;;;;;;5060798;28;20449;-78
2022/11/23 02:28:16;;;;;;;21.92;14.50;;;;;;;;;;5076276;28;20127;-77
2022/11/23 02:30:43;;;;;;;22.80;13.52;;;;;;;;;;5076731;28;20048;-77
2022/11/23 02:33:09;;;;;;;25.23;13.07;;;;;;;;;;5077454;28;20115;-77
2022/11/23 02:35:35;;;;;;;22.00;13.73;;;;;;;;;;5077269;28;20087;-77
2022/11/23 02:38:05;;;;;;;22.60;13.55;;;;;;;;;;5076908;28;20044;-77
2022/11/23 02:40:33;;;;;;;23.08;14.40;;;;;;;;;;5065775;28;20044;-77
2022/11/23 02:42:59;;;;;;;28.95;15.40;;;;;;;;;;5076866;28;20040;-77
2022/11/23 02:45:33;;;;;;;24.80;15.43;;;;;;;;;;5061078;28;20070;-77
2022/11/23 02:47:59;;;;;;;26.42;15.30;;;;;;;;;;5056986;28;20476;-77
2022/11/23 02:50:25;;;;;;;23.98;15.32;;;;;;;;;;5055577;28;20395;-77
2022/11/23 02:52:51;;;;;;;26.05;15.02;;;;;;;;;;5056741;28;20487;-77
2022/11/23 02:55:18;;;;;;;23.92;14.25;;;;;;;;;;5064584;28;20044;-77
2022/11/23 02:57:44;;;;;;;35.13;15.32;;;;;;;;;;5075248;28;20110;-77
2022/11/23 03:00:10;;;;;;;25.35;15.77;;;;;;;;;;5076057;28;20379;-77
2022/11/23 03:02:36;;;;;;;28.98;15.52;;;;;;;;;;5076862;28;20479;-77
2022/11/23 03:05:02;;;;;;;25.40;15.27;;;;;;;;;;5076558;28;20482;-77
2022/11/23 03:07:28;;;;;;;27.08;15.07;;;;;;;;;;5076812;28;20048;-77
2022/11/23 03:09:54;;;;;;;26.98;15.27;;;;;;;;;;5076023;28;20048;-77
2022/11/23 03:12:20;;;;;;;27.92;15.02;;;;;;;;;;5076125;28;20483;-78
2022/11/23 03:14:46;;;;;;;25.55;14.95;;;;;;;;;;5076014;28;20048;-77
2022/11/23 03:17:12;;;;;;;25.48;15.20;;;;;;;;;;5076769;28;20043;-77
2022/11/23 03:19:38;;;;;;;26.27;14.45;;;;;;;;;;5076412;28;20044;-77
2022/11/23 03:22:04;;;;;;;23.88;14.20;;;;;;;;;;5076863;28;20060;-77
2022/11/23 03:24:31;;;;;;;26.45;14.65;;;;;;;;;;5076102;28;20052;-77
2022/11/23 03:26:57;;;;;;;23.33;14.32;;;;;;;;;;5069364;28;20098;-77
2022/11/23 03:29:25;;;;;;;29.33;15.48;;;;;;;;;;5063845;28;20052;-77
2022/11/23 03:31:51;;;;;;;25.13;14.40;;;;;;;;;;5075949;28;20527;-77
2022/11/23 03:34:17;;;;;;;27.02;15.18;;;;;;;;;;5076382;28;20181;-77
2022/11/23 03:36:43;;;;;;;28.67;15.38;;;;;;;;;;5074255;28;20045;-77
2022/11/23 03:39:10;;;;;;;25.70;14.57;;;;;;;;;;5074861;28;20040;-78
2022/11/23 03:41:36;;;;;;;29.05;15.57;;;;;;;;;;5074926;28;20041;-77
2022/11/23 03:44:03;;;;;;;29.38;16.45;;;;;;;;;;5075423;28;20060;-77
2022/11/23 03:46:29;;;;;;;29.27;16.13;;;;;;;;;;5076206;28;20051;-77
2022/11/23 03:48:55;;;;;;;26.88;15.40;;;;;;;;;;5076140;28;20044;-77
2022/11/23 03:51:21;;;;;;;32.35;16.63;;;;;;;;;;5072910;28;20052;-78
2022/11/23 03:53:47;;;;;;;31.40;17.40;;;;;;;;;;5068984;28;20045;-77
2022/11/23 03:56:14;;;;;;;28.85;16.73;;;;;;;;;;5075239;28;20507;-77
2022/11/23 03:58:40;;;;;;;32.50;16.38;;;;;;;;;;5075959;28;20041;-77
2022/11/23 04:01:06;;;;;;;28.73;16.25;;;;;;;;;;5075576;28;20151;-77
2022/11/23 04:03:32;;;;;;;31.67;17.35;;;;;;;;;;5075884;28;20049;-77
2022/11/23 04:05:59;;;;;;;30.77;16.15;;;;;;;;;;5075209;28;20060;-77
2022/11/23 04:08:25;;;;;;;27.42;16.95;;;;;;;;;;5075085;28;20051;-77
2022/11/23 04:10:51;;;;;;;33.05;17.35;;;;;;;;;;5062543;28;20044;-77
2022/11/23 04:13:17;;;;;;;30.73;16.83;;;;;;;;;;5057275;28;20051;-78
2022/11/23 04:15:43;;;;;;;30.38;16.65;;;;;;;;;;5054954;28;20524;-77
2022/11/23 04:18:09;;;;;;;31.73;18.08;;;;;;;;;;5054074;28;20115;-77
2022/11/23 04:20:35;;;;;;;35.70;17.45;;;;;;;;;;5055284;28;20377;-77
2022/11/23 04:23:01;;;;;;;30.05;18.13;;;;;;;;;;5062184;28;20063;-77
2022/11/23 04:25:27;;;;;;;33.70;17.42;;;;;;;;;;5073884;28;20413;-77
2022/11/23 04:27:53;;;;;;;31.02;18.15;;;;;;;;;;5074362;28;20052;-77
2022/11/23 04:30:19;;;;;;;30.67;17.55;;;;;;;;;;5074934;28;20131;-77
2022/11/23 04:32:46;;;;;;;38.58;19.02;;;;;;;;;;5073511;28;20119;-77
2022/11/23 04:35:12;;;;;;;34.95;18.25;;;;;;;;;;5074764;28;20119;-77
2022/11/23 04:37:38;;;;;;;33.15;18.08;;;;;;;;;;5070452;28;20067;-77
2022/11/23 04:40:04;;;;;;;34.45;18.08;;;;;;;;;;5074713;28;20052;-77
2022/11/23 04:42:30;;;;;;;32.72;18.13;;;;;;;;;;5056876;28;20088;-77
2022/11/23 04:44:56;;;;;;;32.28;18.70;;;;;;;;;;5074977;28;20080;-77
2022/11/23 04:47:23;;;;;;;36.53;19.13;;;;;;;;;;5072983;28;20048;-77
2022/11/23 04:49:49;;;;;;;33.05;19.05;;;;;;;;;;5054509;28;20101;-77
2022/11/23 04:52:15;;;;;;;37.33;18.65;;;;;;;;;;5053307;28;20352;-77
2022/11/23 04:54:41;;;;;;;33.50;18.77;;;;;;;;;;5052979;28;20045;-77
2022/11/23 04:57:08;;;;;;;37.42;20.05;;;;;;;;;;5054314;28;20048;-77
2022/11/23 04:59:34;;;;;;;38.70;19.63;;;;;;;;;;5072877;28;20040;-77
2022/11/23 05:02:00;;;;;;;39.72;20.55;;;;;;;;;;5073423;28;20040;-77
2022/11/23 05:04:26;;;;;;;35.70;20.13;;;;;;;;;;5055572;28;20041;-77
2022/11/23 05:06:52;;;;;;;35.92;20.05;;;;;;;;;;5054198;28;20379;-77
2022/11/23 05:09:18;;;;;;;36.58;19.67;;;;;;;;;;5053050;28;20048;-78
2022/11/23 05:11:44;;;;;;;38.05;21.02;;;;;;;;;;5060275;28;20044;-78
2022/11/23 05:14:10;;;;;;;40.55;20.92;;;;;;;;;;5073613;28;20064;-77
2022/11/23 05:16:36;;;;;;;40.17;21.40;;;;;;;;;;5074029;28;20041;-77
2022/11/23 05:19:02;;;;;;;39.65;20.95;;;;;;;;;;5073704;28;20549;-77
2022/11/23 05:21:28;;;;;;;41.03;21.17;;;;;;;;;;5068603;28;20033;-77
2022/11/23 05:23:54;;;;;;;37.17;21.27;;;;;;;;;;5075347;28;20044;-77
2022/11/23 05:26:20;;;;;;;39.60;20.95;;;;;;;;;;5078837;28;20072;-77
2022/11/23 05:28:46;;;;;;;36.20;19.88;;;;;;;;;;5078722;28;20501;-77
2022/11/23 05:31:12;;;;;;;35.67;20.55;;;;;;;;;;5074035;28;20130;-78
2022/11/23 05:33:39;;;;;;;35.28;20.30;;;;;;;;;;5074038;28;20125;-78
2022/11/23 05:36:05;;;;;;;40.25;20.98;;;;;;;;;;5055953;28;20052;-78
2022/11/23 05:38:31;;;;;;;38.42;18.80;;;;;;;;;;5073267;28;20036;-78
2022/11/23 05:40:57;;;;;;;35.25;20.40;;;;;;;;;;5052634;28;20605;-78
2022/11/23 05:43:23;;;;;;;38.45;21.13;;;;;;;;;;5073014;28;20549;-78
2022/11/23 05:45:49;;;;;;;36.45;20.38;;;;;;;;;;5073629;28;20051;-77
2022/11/23 05:48:15;;;;;;;41.08;20.58;;;;;;;;;;5072742;28;20052;-78
2022/11/23 05:50:41;;;;;;;39.53;20.95;;;;;;;;;;5073140;28;20479;-78
2022/11/23 05:53:08;;;;;;;35.72;19.80;;;;;;;;;;5071978;28;20505;-78
2022/11/23 05:55:34;;;;;;;43.53;21.20;;;;;;;;;;5073607;28;20048;-78
2022/11/23 05:58:00;;;;;;;42.60;21.38;;;;;;;;;;5073740;28;20048;-77
2022/11/23 06:00:27;;;;;;;44.72;22.10;;;;;;;;;;5055367;28;20076;-77
2022/11/23 06:02:57;;;;;;;42.45;22.75;;;;;;;;;;5074005;28;20047;-77
2022/11/23 06:05:23;;;;;;;42.88;22.25;;;;;;;;;;5062719;28;20548;-77
2022/11/23 06:07:52;;;;;;;49.72;23.88;;;;;;;;;;5064785;28;20036;-78
2022/11/23 06:10:18;;;;;;;41.60;22.98;;;;;;;;;;5071360;28;20048;-78
2022/11/23 06:12:44;;;;;;;46.55;23.83;;;;;;;;;;5068032;28;20478;-78
2022/11/23 06:15:11;;;;;;;43.15;22.52;;;;;;;;;;5071597;28;20056;-78
2022/11/23 06:17:39;;;;;;;45.90;24.65;;;;;;;;;;5073615;28;20368;-78
2022/11/23 06:20:06;;;;;;;44.65;23.10;;;;;;;;;;5071796;28;20403;-78
2022/11/23 06:22:32;;;;;;;41.90;21.63;;;;;;;;;;5073220;28;20043;-78
2022/11/23 06:24:58;;;;;;;47.75;25.02;;;;;;;;;;5073380;28;20080;-78
2022/11/23 06:27:24;;;;;;;39.65;21.35;;;;;;;;;;5071931;28;20072;-78
2022/11/23 06:29:50;;;;;;;40.72;21.17;;;;;;;;;;5073440;28;20076;-77
2022/11/23 06:32:16;;;;;;;46.67;22.63;;;;;;;;;;5073081;28;20062;-77
2022/11/23 06:34:42;;;;;;;39.72;21.15;;;;;;;;;;5062038;28;20059;-77
2022/11/23 06:37:08;;;;;;;40.17;21.48;;;;;;;;;;5072893;28;20075;-78
2022/11/23 06:39:34;;;;;;;40.55;21.27;;;;;;;;;;5072940;28;20129;-78
2022/11/23 06:42:00;;;;;;;41.85;21.55;;;;;;;;;;5072890;28;20488;-77
2022/11/23 06:44:26;;;;;;;40.97;19.95;;;;;;;;;;5073144;28;20097;-77
2022/11/23 06:46:52;;;;;;;38.78;20.15;;;;;;;;;;5071982;28;20041;-77
2022/11/23 06:49:20;;;;;;;37.95;18.77;;;;;;;;;;5072439;28;20166;-77
2022/11/23 06:51:46;;;;;;;34.30;18.42;;;;;;;;;;5072837;28;20044;-77
2022/11/23 06:54:12;;;;;;;36.63;18.75;;;;;;;;;;5073421;28;20032;-78
2022/11/23 06:56:41;;;;;;;35.50;17.90;;;;;;;;;;5073943;28;20093;-79
2022/11/23 06:59:07;;;;;;;35.88;17.17;;;;;;;;;;5074851;28;20036;-79
2022/11/23 07:01:33;;;;;;;38.22;17.52;;;;;;;;;;5071648;28;20410;-77
2022/11/23 07:03:59;;;;;;;41.10;19.05;;;;;;;;;;5073069;28;20036;-77
2022/11/23 07:06:25;;;;;;;30.67;16.63;;;;;;;;;;5072379;28;20047;-77
2022/11/23 07:08:53;;;;;;;31.25;17.23;;;;;;;;;;5072543;28;20041;-77
2022/11/23 07:11:19;;;;;;;34.85;16.67;;;;;;;;;;5069094;28;20119;-77
2022/11/23 07:13:46;;;;;;;32.75;17.08;;;;;;;;;;5060191;28;20045;-76
2022/11/23 07:16:13;;;;;;;29.23;16.48;;;;;;;;;;5056885;28;20425;-76
2022/11/23 07:18:39;;;;;;;32.65;15.88;;;;;;;;;;5072856;28;20379;-77
2022/11/23 07:21:05;;;;;;;28.15;15.68;;;;;;;;;;5073481;28;20044;-77
2022/11/23 07:23:31;;;;;;;32.03;15.30;;;;;;;;;;5074571;28;20498;-77
2022/11/23 07:25:57;;;;;;;27.58;14.73;;;;;;;;;;5076239;28;20106;-77
2022/11/23 07:28:23;;;;;;;27.48;14.68;;;;;;;;;;5075479;28;20049;-77
2022/11/23 07:30:53;;;;;;;26.10;15.48;;;;;;;;;;5074533;28;20364;-77
2022/11/23 07:33:22;;;;;;;25.42;14.63;;;;;;;;;;5075982;28;20111;-77
2022/11/23 07:35:48;;;;;;;27.15;15.55;;;;;;;;;;5072445;28;20041;-77
2022/11/23 07:38:16;;;;;;;29.75;14.43;;;;;;;;;;5074554;28;20047;-77
2022/11/23 07:40:42;;;;;;;30.85;14.20;;;;;;;;;;5075861;28;20445;-77
2022/11/23 07:43:09;;;;;;;27.00;13.20;;;;;;;;;;5075672;28;20426;-77
2022/11/23 07:45:36;;;;;;;27.85;14.85;;;;;;;;;;5057821;28;20095;-77
2022/11/23 07:48:06;;;;;;;26.45;13.85;;;;;;;;;;5074162;28;20045;-77
2022/11/23 07:50:33;;;;;;;23.00;14.05;;;;;;;;;;5070180;28;20080;-77
2022/11/23 07:53:01;;;;;;;21.92;12.82;;;;;;;;;;5075680;28;20056;-77
2022/11/23 07:55:27;;;;;;;25.88;13.73;;;;;;;;;;5075597;28;20036;-77
2022/11/23 07:57:54;;;;;;;23.50;13.23;;;;;;;;;;5073541;28;20036;-77
2022/11/23 08:00:20;;;;;;;20.00;13.00;;;;;;;;;;5071939;28;20044;-77
2022/11/23 08:02:47;;;;;;;24.33;13.30;;;;;;;;;;5074991;28;20032;-77
2022/11/23 08:05:13;;;;;;;23.45;13.07;;;;;;;;;;5070559;28;20499;-77
2022/11/23 08:07:39;;;;;;;20.92;11.48;;;;;;;;;;5064574;28;20045;-77
2022/11/23 08:10:05;;;;;;;22.95;12.63;;;;;;;;;;5071214;28;20127;-77
2022/11/23 08:12:31;;;;;;;22.45;11.98;;;;;;;;;;5075309;28;20048;-77
2022/11/23 08:14:57;;;;;;;19.38;10.75;;;;;;;;;;5075074;28;20045;-77
2022/11/23 08:17:23;;;;;;;19.88;11.43;;;;;;;;;;5074266;28;20059;-78
2022/11/23 08:19:49;;;;;;;20.95;11.07;;;;;;;;;;5057513;28;20045;-78
2022/11/23 08:22:15;;;;;;;20.35;11.02;;;;;;;;;;5069697;28;20051;-78
2022/11/23 08:24:41;;;;;;;21.48;11.75;;;;;;;;;;5059838;28;20052;-78
2022/11/23 08:27:07;;;;;;;17.77;10.73;;;;;;;;;;5075237;28;20040;-77
2022/11/23 08:29:33;;;;;;;20.00;11.68;;;;;;;;;;5065002;28;20036;-77
2022/11/23 08:31:59;;;;;;;19.52;10.90;;;;;;;;;;5070005;28;20124;-77
2022/11/23 08:34:26;;;;;;;18.13;10.75;;;;;;;;;;5073973;28;20048;-77
2022/11/23 08:36:52;;;;;;;16.02;10.80;;;;;;;;;;5075198;28;20498;-77
2022/11/23 08:39:18;;;;;;;19.30;10.73;;;;;;;;;;5076234;28;20041;-77
2022/11/23 08:41:44;;;;;;;19.75;10.63;;;;;;;;;;5078835;28;20383;-77
2022/11/23 08:44:11;;;;;;;19.05;11.27;;;;;;;;;;5080471;28;20041;-78
2022/11/23 08:46:37;;;;;;;17.65;10.07;;;;;;;;;;5076309;28;20084;-78
2022/11/23 08:49:04;;;;;;;19.52;10.60;;;;;;;;;;5076025;28;20040;-78
2022/11/23 08:51:30;;;;;;;17.13;10.13;;;;;;;;;;5074499;28;20045;-78
2022/11/23 08:53:57;;;;;;;19.70;10.65;;;;;;;;;;5073453;28;20437;-79
2022/11/23 08:56:23;;;;;;;22.40;11.18;;;;;;;;;;5075223;28;20041;-78
2022/11/23 08:58:49;;;;;;;20.83;10.63;;;;;;;;;;5074965;28;20116;-77
2022/11/23 09:01:15;;;;;;;21.25;10.88;;;;;;;;;;5058351;28;20105;-77
2022/11/23 09:03:42;;;;;;;18.95;10.50;;;;;;;;;;5069994;28;20116;-78
2022/11/23 09:06:08;;;;;;;20.73;10.90;;;;;;;;;;5054465;28;20037;-77
2022/11/23 09:08:35;;;;;;;22.77;10.50;;;;;;;;;;5069889;28;20088;-77
2022/11/23 09:11:05;;;;;;;18.42;9.88;;;;;;;;;;5075829;28;20116;-77
2022/11/23 09:13:31;;;;;;;16.33;9.40;;;;;;;;;;5076002;28;20052;-77
2022/11/23 09:15:58;;;;;;;18.92;10.30;;;;;;;;;;5068059;28;20151;-78
2022/11/23 09:18:25;;;;;;;20.60;10.77;;;;;;;;;;5076360;28;20102;-78
2022/11/23 09:20:52;;;;;;;18.92;10.63;;;;;;;;;;5073883;28;20564;-78
2022/11/23 09:23:18;;;;;;;19.77;9.73;;;;;;;;;;5077144;28;20103;-78
2022/11/23 09:25:47;;;;;;;18.23;10.02;;;;;;;;;;5074965;28;20463;-79
2022/11/23 09:28:14;;;;;;;16.95;9.55;;;;;;;;;;5074723;28;20471;-78
2022/11/23 09:30:40;;;;;;;16.27;9.32;;;;;;;;;;5073537;28;20037;-78
2022/11/23 09:33:07;;;;;;;17.52;9.25;;;;;;;;;;5071288;28;20501;-78
2022/11/23 09:35:33;;;;;;;16.75;8.32;;;;;;;;;;5069458;28;20049;-78
2022/11/23 09:37:59;;;;;;;14.60;8.50;;;;;;;;;;5065317;28;20037;-78
2022/11/23 09:40:31;;;;;;;17.35;9.27;;;;;;;;;;5065859;28;20053;-78
2022/11/23 09:43:06;;;;;;;13.45;8.20;;;;;;;;;;5067732;28;20044;-78
2022/11/23 09:45:35;;;;;;;17.25;8.02;;;;;;;;;;5064195;28;20040;-78
2022/11/23 09:48:14;;;;;;;15.70;8.55;;;;;;;;;;5072455;28;20059;-78
2022/11/23 09:51:00;;;;;;;13.73;8.57;;;;;;;;;;5074263;28;20055;-78
2022/11/23 09:53:39;;;;;;;17.35;7.93;;;;;;;;;;5074421;28;20044;-78
2022/11/23 09:56:14;;;;;;;12.82;7.88;;;;;;;;;;5074476;28;20063;-78
2022/11/23 09:58:40;;;;;;;15.70;7.40;;;;;;;;;;5072312;28;20040;-78
2022/11/23 10:01:14;;;;;;;12.18;6.85;;;;;;;;;;5073809;28;20083;-78
2022/11/23 10:03:41;;;;;;;13.57;7.35;;;;;;;;;;5073159;28;20060;-78
2022/11/23 10:06:17;;;;;;;14.25;6.82;;;;;;;;;;5066545;28;20056;-77
2022/11/23 10:08:52;;;;;;;11.02;6.85;;;;;;;;;;5071812;28;20051;-77
2022/11/23 10:11:30;;;;;;;15.90;7.75;;;;;;;;;;5063925;28;20559;-77
2022/11/23 10:14:25;;;;;;;13.82;7.18;;;;;;;;;;5069158;28;20036;-77
2022/11/23 10:16:58;;;;;;;14.25;7.05;;;;;;;;;;5071964;28;20047;-77
2022/11/23 10:19:36;;;;;;;15.25;7.38;;;;;;;;;;5072712;28;20048;-77
2022/11/23 10:22:35;;;;;;;10.80;7.50;;;;;;;;;;5058006;28;20047;-77
2022/11/23 10:25:04;;;;;;;15.63;6.78;;;;;;;;;;5031359;28;20090;-77
2022/11/23 10:27:30;;;;;;;15.00;7.35;;;;;;;;;;5072594;28;20094;-77
2022/11/23 10:29:58;;;;;;;16.30;6.95;;;;;;;;;;5072371;28;21569;-80
2022/11/23 10:32:45;;;;;;;17.67;7.60;;;;;;;;;;5071646;28;20044;-78
2022/11/23 10:35:13;;;;;;;16.90;7.65;;;;;;;;;;5060283;28;20041;-77
2022/11/23 10:37:40;;;;;;;18.13;8.00;;;;;;;;;;5073012;28;20041;-78
2022/11/23 10:40:15;;;;;;;16.10;7.20;;;;;;;;;;5073347;28;20403;-78
2022/11/23 10:42:43;;;;;;;16.75;7.68;;;;;;;;;;5063655;28;20063;-78
2022/11/23 10:45:23;;;;;;;14.02;6.57;;;;;;;;;;5062446;28;20072;-78
2022/11/23 10:47:50;;;;;;;14.93;7.15;;;;;;;;;;5077808;28;20051;-78
2022/11/23 10:50:24;;;;;;;10.57;6.53;;;;;;;;;;5071934;28;20047;-78
2022/11/23 10:52:55;;;;;;;13.85;6.60;;;;;;;;;;5069941;28;20056;-78
2022/11/23 10:55:23;;;;;;;15.32;7.28;;;;;;;;;;5076495;28;20044;-78
2022/11/23 10:57:49;;;;;;;14.27;6.60;;;;;;;;;;5063238;28;20508;-78
2022/11/23 11:00:18;;;;;;;15.77;6.53;;;;;;;;;;5074793;28;20075;-78
2022/11/23 11:02:49;;;;;;;15.93;6.75;;;;;;;;;;5076368;28;20079;-78
2022/11/23 11:05:25;;;;;;;12.48;5.90;;;;;;;;;;5063692;28;20045;-77
2022/11/23 11:07:51;;;;;;;18.98;7.10;;;;;;;;;;5074830;28;20048;-77
2022/11/23 11:10:32;;;;;;;14.25;6.20;;;;;;;;;;5077156;28;20128;-77
2022/11/23 11:12:58;;;;;;;14.13;5.57;;;;;;;;;;5062090;28;20106;-77
2022/11/23 11:15:24;;;;;;;15.57;6.13;;;;;;;;;;5076899;28;20053;-77
2022/11/23 11:17:55;;;;;;;12.05;5.53;;;;;;;;;;5072656;28;20044;-77
2022/11/23 11:20:30;;;;;;;9.82;4.80;;;;;;;;;;5063883;28;20055;-77
2022/11/23 11:22:57;;;;;;;14.07;5.18;;;;;;;;;;5072451;28;20097;-77
2022/11/23 11:25:31;;;;;;;12.38;4.97;;;;;;;;;;5067318;28;20072;-77
2022/11/23 11:27:58;;;;;;;13.60;5.10;;;;;;;;;;5053605;28;20437;-77
2022/11/23 11:30:24;;;;;;;13.98;4.57;;;;;;;;;;5076099;28;20094;-77
2022/11/23 11:33:09;;;;;;;14.57;4.75;;;;;;;;;;5077110;28;20047;-77
2022/11/23 11:35:37;;;;;;;12.75;4.97;;;;;;;;;;5069170;28;20063;-77
2022/11/23 11:38:24;;;;;;;13.55;4.97;;;;;;;;;;5070463;28;20121;-77
2022/11/23 11:40:51;;;;;;;11.85;4.78;;;;;;;;;;5066119;28;20048;-78
2022/11/23 11:43:23;;;;;;;11.25;4.90;;;;;;;;;;5082744;28;20542;-78
2022/11/23 11:45:54;;;;;;;11.25;4.00;;;;;;;;;;5080699;28;20044;-78
2022/11/23 11:48:29;;;;;;;12.75;4.65;;;;;;;;;;5078771;28;20121;-79
2022/11/23 11:51:02;;;;;;;12.32;4.82;;;;;;;;;;5060123;28;20463;-78
2022/11/23 11:53:47;;;;;;;14.52;4.43;;;;;;;;;;5059679;28;20049;-78
2022/11/23 11:56:18;;;;;;;13.13;4.57;;;;;;;;;;5071153;28;20044;-79
2022/11/23 11:58:49;;;;;;;9.05;4.22;;;;;;;;;;5081451;28;20051;-78
2022/11/23 12:01:28;;;;;;;12.00;4.03;;;;;;;;;;5074703;28;20080;-79
2022/11/23 12:04:00;;;;;;;12.35;4.35;;;;;;;;;;5080339;28;20044;-78
2022/11/23 12:06:29;;;;;;;10.93;4.32;;;;;;;;;;5079761;28;20166;-78
2022/11/23 12:09:01;;;;;;;9.60;3.53;;;;;;;;;;5077215;28;20056;-77
2022/11/23 12:11:27;;;;;;;12.73;4.22;;;;;;;;;;5077840;28;20494;-79
2022/11/23 12:13:58;;;;;;;10.43;4.20;;;;;;;;;;5069577;28;20040;-78
2022/11/23 12:16:33;;;;;;;13.80;4.70;;;;;;;;;;5063342;28;20429;-78
2022/11/23 12:19:06;;;;;;;12.82;3.50;;;;;;;;;;5066098;28;20090;-78
2022/11/23 12:21:59;;;;;;;12.63;4.07;;;;;;;;;;5057332;28;20079;-78
2022/11/23 12:24:43;;;;;;;11.95;3.60;;;;;;;;;;5051882;28;20057;-78
2022/11/23 12:27:21;;;;;;;11.27;3.60;;;;;;;;;;5063821;28;20041;-78
2022/11/23 12:29:50;;;;;;;14.63;3.35;;;;;;;;;;5061012;28;20398;-78
2022/11/23 12:32:35;;;;;;;11.30;3.80;;;;;;;;;;5075370;28;20080;-78
2022/11/23 12:35:01;;;;;;;8.90;3.33;;;;;;;;;;5074774;28;20037;-78
2022/11/23 12:37:33;;;;;;;8.63;2.97;;;;;;;;;;5075084;28;20123;-78
2022/11/23 12:40:19;;;;;;;7.50;3.10;;;;;;;;;;5060337;28;20410;-78
2022/11/23 12:42:55;;;;;;;12.13;3.38;;;;;;;;;;5066285;28;20051;-78
2022/11/23 12:45:21;;;;;;;;;;;;;;;;;;5074532;28;20051;-78
2022/11/23 12:47:59;;;;;;;9.95;3.55;;;;;;;;;;5067918;28;19932;-78
2022/11/23 12:50:41;;;;;;;13.32;3.80;;;;;;;;;;5075516;28;20048;-78
2022/11/23 12:53:07;;;;;;;9.45;3.25;;;;;;;;;;5039135;28;20055;-78
2022/11/23 12:55:38;;;;;;;11.40;3.47;;;;;;;;;;5054568;28;20052;-78
2022/11/23 12:58:08;;;;;;;13.85;3.33;;;;;;;;;;5040593;28;20492;-78
2022/11/23 13:00:35;;;;;;;8.90;3.25;;;;;;;;;;5054566;28;20056;-78
2022/11/23 13:03:22;;;;;;;9.48;3.47;;;;;;;;;;5052245;28;20166;-78
2022/11/23 13:05:54;;;;;;;11.15;3.22;;;;;;;;;;5041662;28;20049;-78
2022/11/23 13:08:35;;;;;;;10.85;2.97;;;;;;;;;;5049562;28;20041;-78
2022/11/23 13:11:20;;;;;;;13.70;3.22;;;;;;;;;;5046680;28;20041;-78
2022/11/23 13:14:18;;;;;;;10.02;3.15;;;;;;;;;;5038839;28;20102;-78
2022/11/23 13:17:10;;;;;;;11.25;3.00;;;;;;;;;;5022353;28;20053;-78
2022/11/23 13:20:03;;;;;;;13.40;3.13;;;;;;;;;;5034690;28;20076;-78
2022/11/23 13:22:30;;;;;;;12.13;2.90;;;;;;;;;;5045081;28;20105;-78
2022/11/23 13:25:20;;;;;;;7.13;2.50;;;;;;;;;;5039779;28;20049;-78
2022/11/23 13:27:49;;;;;;;9.73;3.55;;;;;;;;;;5036035;28;20053;-78
2022/11/23 13:30:23;;;;;;;9.55;2.80;;;;;;;;;;5054017;28;20166;-78
2022/11/23 13:33:01;;;;;;;9.75;3.00;;;;;;;;;;5054185;28;20475;-78
2022/11/23 13:35:30;;;;;;;13.20;3.35;;;;;;;;;;5033903;28;20042;-78
2022/11/23 13:37:56;;;;;;;9.38;3.60;;;;;;;;;;5046451;28;20041;-78
2022/11/23 13:40:26;;;;;;;10.40;2.78;;;;;;;;;;5034799;28;20492;-78
2022/11/23 13:42:53;;;;;;;9.73;2.75;;;;;;;;;;5041147;28;20044;-78
2022/11/23 13:45:19;;;;;;;8.38;2.60;;;;;;;;;;5047643;28;20083;-78
2022/11/23 13:48:04;;;;;;;7.95;3.17;;;;;;;;;;5043663;28;20040;-78
2022/11/23 13:50:31;;;;;;;7.85;2.60;;;;;;;;;;5053090;28;20488;-77
2022/11/23 13:52:57;;;;;;;8.48;2.42;;;;;;;;;;5047146;28;20048;-78
2022/11/23 13:55:39;;;;;;;11.00;2.67;;;;;;;;;;5068023;28;20041;-77
2022/11/23 13:58:23;;;;;;;8.40;2.88;;;;;;;;;;5043895;28;20467;-77
2022/11/23 14:00:50;;;;;;;8.05;2.80;;;;;;;;;;5056649;28;20056;-79
2022/11/23 14:03:35;;;;;;;10.02;3.13;;;;;;;;;;5056761;28;20051;-79
2022/11/23 14:06:03;;;;;;;9.18;2.92;;;;;;;;;;5043384;28;20506;-79
2022/11/23 14:08:29;;;;;;;7.22;2.60;;;;;;;;;;5046765;28;20404;-79
2022/11/23 14:10:57;;;;;;;9.52;3.15;;;;;;;;;;5051227;28;20053;-79
2022/11/23 14:13:31;;;;;;;8.27;2.58;;;;;;;;;;5048605;28;20041;-80
2022/11/23 14:16:00;;;;;;;14.48;3.30;;;;;;;;;;5058157;28;20045;-80
2022/11/23 14:18:52;;;;;;;5.10;2.25;;;;;;;;;;5056302;28;20053;-79
2022/11/23 14:21:18;;;;;;;9.48;2.50;;;;;;;;;;5063322;28;20080;-79
2022/11/23 14:23:56;;;;;;;8.85;2.38;;;;;;;;;;5065231;28;20067;-79
2022/11/23 14:26:34;;;;;;;8.25;2.50;;;;;;;;;;5063900;28;20053;-79
2022/11/23 14:29:06;;;;;;;8.48;2.40;;;;;;;;;;5062417;28;20459;-79
2022/11/23 14:31:51;;;;;;;11.20;2.88;;;;;;;;;;5046200;28;20053;-79
2022/11/23 14:34:47;;;;;;;6.22;2.58;;;;;;;;;;5064536;28;20491;-79